sensor_id;sensor_type;location;lat;lon;timestamp;temperature;humidity
19483;DHT22;9882;51.166;6.992;2023-06-10T00:00:50;25.30;98.10
19483;DHT22;9882;51.166;6.992;2023-06-10T00:03:19;25.20;98.40
19483;DHT22;9882;51.166;6.992;2023-06-10T00:05:53;25.40;98.10
19483;DHT22;9882;51.166;6.992;2023-06-10T00:08:21;25.20;98.30
19483;DHT22;9882;51.166;6.992;2023-06-10T00:10:50;25.40;98.10
19483;DHT22;9882;51.166;6.992;2023-06-10T00:13:18;25.30;98.20
19483;DHT22;9882;51.166;6.992;2023-06-10T00:15:47;25.20;98.40
19483;DHT22;9882;51.166;6.992;2023-06-10T00:18:15;25.30;98.20
19483;DHT22;9882;51.166;6.992;2023-06-10T00:20:44;25.30;98.10
19483;DHT22;9882;51.166;6.992;2023-06-10T00:23:15;25.10;98.70
19483;DHT22;9882;51.166;6.992;2023-06-10T00:25:43;25.10;98.80
19483;DHT22;9882;51.166;6.992;2023-06-10T00:28:12;24.90;99.10
19483;DHT22;9882;51.166;6.992;2023-06-10T00:30:41;24.90;99.50
19483;DHT22;9882;51.166;6.992;2023-06-10T00:33:10;25.00;99.30
19483;DHT22;9882;51.166;6.992;2023-06-10T00:35:38;25.00;99.40
19483;DHT22;9882;51.166;6.992;2023-06-10T00:38:07;24.80;99.50
19483;DHT22;9882;51.166;6.992;2023-06-10T00:40:40;24.70;99.90
19483;DHT22;9882;51.166;6.992;2023-06-10T00:43:09;24.50;99.90
19483;DHT22;9882;51.166;6.992;2023-06-10T00:45:37;24.80;99.90
19483;DHT22;9882;51.166;6.992;2023-06-10T00:48:06;24.50;99.90
19483;DHT22;9882;51.166;6.992;2023-06-10T00:50:35;24.50;99.90
19483;DHT22;9882;51.166;6.992;2023-06-10T00:53:06;24.70;99.90
19483;DHT22;9882;51.166;6.992;2023-06-10T00:55:37;24.70;99.90
19483;DHT22;9882;51.166;6.992;2023-06-10T00:58:07;24.70;99.90
19483;DHT22;9882;51.166;6.992;2023-06-10T01:00:36;24.70;99.90
19483;DHT22;9882;51.166;6.992;2023-06-10T01:03:05;24.50;99.90
19483;DHT22;9882;51.166;6.992;2023-06-10T01:05:35;24.70;99.90
19483;DHT22;9882;51.166;6.992;2023-06-10T01:08:09;24.60;99.90
19483;DHT22;9882;51.166;6.992;2023-06-10T01:10:47;24.60;99.90
19483;DHT22;9882;51.166;6.992;2023-06-10T01:13:20;24.50;99.90
19483;DHT22;9882;51.166;6.992;2023-06-10T01:15:51;24.60;99.90
19483;DHT22;9882;51.166;6.992;2023-06-10T01:18:20;24.40;99.90
19483;DHT22;9882;51.166;6.992;2023-06-10T01:20:49;24.60;99.90
19483;DHT22;9882;51.166;6.992;2023-06-10T01:23:20;24.40;99.90
19483;DHT22;9882;51.166;6.992;2023-06-10T01:25:53;24.20;99.90
19483;DHT22;9882;51.166;6.992;2023-06-10T01:28:28;24.30;99.90
19483;DHT22;9882;51.166;6.992;2023-06-10T01:31:06;24.20;99.90
19483;DHT22;9882;51.166;6.992;2023-06-10T01:33:42;24.30;99.90
19483;DHT22;9882;51.166;6.992;2023-06-10T01:36:12;24.20;99.90
19483;DHT22;9882;51.166;6.992;2023-06-10T01:38:44;24.20;99.90
19483;DHT22;9882;51.166;6.992;2023-06-10T01:41:16;24.00;99.90
19483;DHT22;9882;51.166;6.992;2023-06-10T01:43:46;24.10;99.90
19483;DHT22;9882;51.166;6.992;2023-06-10T01:46:15;24.10;99.90
19483;DHT22;9882;51.166;6.992;2023-06-10T01:48:47;24.00;99.90
19483;DHT22;9882;51.166;6.992;2023-06-10T01:51:16;23.90;99.90
19483;DHT22;9882;51.166;6.992;2023-06-10T01:53:46;23.90;99.90
19483;DHT22;9882;51.166;6.992;2023-06-10T01:56:15;23.90;99.90
19483;DHT22;9882;51.166;6.992;2023-06-10T01:58:46;24.00;99.90
19483;DHT22;9882;51.166;6.992;2023-06-10T02:01:14;23.80;99.90
19483;DHT22;9882;51.166;6.992;2023-06-10T02:03:43;24.00;99.90
19483;DHT22;9882;51.166;6.992;2023-06-10T02:06:11;24.00;99.90
19483;DHT22;9882;51.166;6.992;2023-06-10T02:08:40;23.90;99.90
19483;DHT22;9882;51.166;6.992;2023-06-10T02:11:10;23.90;99.90
19483;DHT22;9882;51.166;6.992;2023-06-10T02:13:39;23.90;99.90
19483;DHT22;9882;51.166;6.992;2023-06-10T02:16:07;23.80;99.90
19483;DHT22;9882;51.166;6.992;2023-06-10T02:18:36;23.90;99.90
19483;DHT22;9882;51.166;6.992;2023-06-10T02:21:08;24.00;99.90
19483;DHT22;9882;51.166;6.992;2023-06-10T02:23:36;23.90;99.90
19483;DHT22;9882;51.166;6.992;2023-06-10T02:26:05;23.80;99.90
19483;DHT22;9882;51.166;6.992;2023-06-10T02:28:35;23.80;99.90
19483;DHT22;9882;51.166;6.992;2023-06-10T02:31:04;23.90;99.90
19483;DHT22;9882;51.166;6.992;2023-06-10T02:33:34;23.90;99.90
19483;DHT22;9882;51.166;6.992;2023-06-10T02:36:07;23.90;99.90
19483;DHT22;9882;51.166;6.992;2023-06-10T02:38:36;23.60;99.90
19483;DHT22;9882;51.166;6.992;2023-06-10T02:41:04;23.40;99.90
19483;DHT22;9882;51.166;6.992;2023-06-10T02:43:35;23.20;99.90
19483;DHT22;9882;51.166;6.992;2023-06-10T02:46:03;23.40;99.90
19483;DHT22;9882;51.166;6.992;2023-06-10T02:48:38;23.50;99.90
19483;DHT22;9882;51.166;6.992;2023-06-10T02:51:08;23.20;99.90
19483;DHT22;9882;51.166;6.992;2023-06-10T02:53:40;23.40;99.90
19483;DHT22;9882;51.166;6.992;2023-06-10T02:56:11;23.60;99.90
19483;DHT22;9882;51.166;6.992;2023-06-10T02:58:41;23.50;99.90
19483;DHT22;9882;51.166;6.992;2023-06-10T03:01:15;23.20;99.90
19483;DHT22;9882;51.166;6.992;2023-06-10T03:03:58;23.30;99.90
19483;DHT22;9882;51.166;6.992;2023-06-10T03:06:26;23.40;99.90
19483;DHT22;9882;51.166;6.992;2023-06-10T03:09:06;22.90;99.90
19483;DHT22;9882;51.166;6.992;2023-06-10T03:11:36;22.90;99.90
19483;DHT22;9882;51.166;6.992;2023-06-10T03:14:06;23.20;99.90
19483;DHT22;9882;51.166;6.992;2023-06-10T03:16:35;23.30;99.90
19483;DHT22;9882;51.166;6.992;2023-06-10T03:19:08;23.40;99.90
19483;DHT22;9882;51.166;6.992;2023-06-10T03:21:43;23.50;99.90
19483;DHT22;9882;51.166;6.992;2023-06-10T03:24:14;23.30;99.90
19483;DHT22;9882;51.166;6.992;2023-06-10T03:26:43;23.40;99.90
19483;DHT22;9882;51.166;6.992;2023-06-10T03:29:14;23.40;99.90
19483;DHT22;9882;51.166;6.992;2023-06-10T03:31:43;23.40;99.90
19483;DHT22;9882;51.166;6.992;2023-06-10T03:34:11;23.40;99.90
19483;DHT22;9882;51.166;6.992;2023-06-10T03:36:40;23.40;99.90
19483;DHT22;9882;51.166;6.992;2023-06-10T03:39:10;23.30;99.90
19483;DHT22;9882;51.166;6.992;2023-06-10T03:41:39;23.30;99.90
19483;DHT22;9882;51.166;6.992;2023-06-10T03:44:09;23.30;99.90
19483;DHT22;9882;51.166;6.992;2023-06-10T03:46:39;23.20;99.90
19483;DHT22;9882;51.166;6.992;2023-06-10T03:49:08;23.20;99.90
19483;DHT22;9882;51.166;6.992;2023-06-10T03:51:37;23.20;99.90
19483;DHT22;9882;51.166;6.992;2023-06-10T03:54:06;23.20;99.90
19483;DHT22;9882;51.166;6.992;2023-06-10T03:56:35;23.10;99.90
19483;DHT22;9882;51.166;6.992;2023-06-10T03:59:04;23.10;99.90
19483;DHT22;9882;51.166;6.992;2023-06-10T04:01:33;23.10;99.90
19483;DHT22;9882;51.166;6.992;2023-06-10T04:04:06;23.10;99.90
19483;DHT22;9882;51.166;6.992;2023-06-10T04:06:35;23.00;99.90
19483;DHT22;9882;51.166;6.992;2023-06-10T04:09:04;23.00;99.90
19483;DHT22;9882;51.166;6.992;2023-06-10T04:11:33;23.00;99.90
19483;DHT22;9882;51.166;6.992;2023-06-10T04:14:01;23.00;99.90
19483;DHT22;9882;51.166;6.992;2023-06-10T04:16:31;23.00;99.90
19483;DHT22;9882;51.166;6.992;2023-06-10T04:19:00;22.90;99.90
19483;DHT22;9882;51.166;6.992;2023-06-10T04:21:30;22.90;99.90
19483;DHT22;9882;51.166;6.992;2023-06-10T04:24:00;22.70;99.90
19483;DHT22;9882;51.166;6.992;2023-06-10T04:26:28;22.80;99.90
19483;DHT22;9882;51.166;6.992;2023-06-10T04:28:57;22.70;99.90
19483;DHT22;9882;51.166;6.992;2023-06-10T04:31:26;22.80;99.90
19483;DHT22;9882;51.166;6.992;2023-06-10T04:33:55;22.80;99.90
19483;DHT22;9882;51.166;6.992;2023-06-10T04:36:24;22.80;99.90
19483;DHT22;9882;51.166;6.992;2023-06-10T04:38:54;22.80;99.90
19483;DHT22;9882;51.166;6.992;2023-06-10T04:41:23;22.80;99.90
19483;DHT22;9882;51.166;6.992;2023-06-10T04:43:53;22.80;99.90
19483;DHT22;9882;51.166;6.992;2023-06-10T04:46:21;22.80;99.90
19483;DHT22;9882;51.166;6.992;2023-06-10T04:48:50;22.60;99.90
19483;DHT22;9882;51.166;6.992;2023-06-10T04:51:19;22.80;99.90
19483;DHT22;9882;51.166;6.992;2023-06-10T04:53:48;22.70;99.90
19483;DHT22;9882;51.166;6.992;2023-06-10T04:56:18;22.70;99.90
19483;DHT22;9882;51.166;6.992;2023-06-10T04:58:47;22.60;99.90
19483;DHT22;9882;51.166;6.992;2023-06-10T05:01:16;22.40;99.90
19483;DHT22;9882;51.166;6.992;2023-06-10T05:03:44;21.50;99.90
19483;DHT22;9882;51.166;6.992;2023-06-10T05:06:15;22.00;99.90
19483;DHT22;9882;51.166;6.992;2023-06-10T05:08:43;22.20;99.90
19483;DHT22;9882;51.166;6.992;2023-06-10T05:11:12;22.30;99.90
19483;DHT22;9882;51.166;6.992;2023-06-10T05:13:42;22.40;99.90
19483;DHT22;9882;51.166;6.992;2023-06-10T05:16:11;22.30;99.90
19483;DHT22;9882;51.166;6.992;2023-06-10T05:18:42;21.80;99.90
19483;DHT22;9882;51.166;6.992;2023-06-10T05:21:10;21.30;99.90
19483;DHT22;9882;51.166;6.992;2023-06-10T05:23:39;21.10;99.90
19483;DHT22;9882;51.166;6.992;2023-06-10T05:26:08;21.60;99.90
19483;DHT22;9882;51.166;6.992;2023-06-10T05:28:37;21.90;99.90
19483;DHT22;9882;51.166;6.992;2023-06-10T05:31:07;22.10;99.90
19483;DHT22;9882;51.166;6.992;2023-06-10T05:33:35;22.20;99.90
19483;DHT22;9882;51.166;6.992;2023-06-10T05:36:04;22.10;99.90
19483;DHT22;9882;51.166;6.992;2023-06-10T05:38:33;22.10;99.90
19483;DHT22;9882;51.166;6.992;2023-06-10T05:41:01;22.20;99.90
19483;DHT22;9882;51.166;6.992;2023-06-10T05:43:31;22.30;99.90
19483;DHT22;9882;51.166;6.992;2023-06-10T05:45:59;22.30;99.90
19483;DHT22;9882;51.166;6.992;2023-06-10T05:48:29;21.90;99.90
19483;DHT22;9882;51.166;6.992;2023-06-10T05:50:57;21.60;99.90
19483;DHT22;9882;51.166;6.992;2023-06-10T05:53:26;21.40;99.90
19483;DHT22;9882;51.166;6.992;2023-06-10T05:55:56;21.70;99.90
19483;DHT22;9882;51.166;6.992;2023-06-10T05:58:24;21.40;99.90
19483;DHT22;9882;51.166;6.992;2023-06-10T06:00:53;21.30;99.90
19483;DHT22;9882;51.166;6.992;2023-06-10T06:03:21;21.30;99.90
19483;DHT22;9882;51.166;6.992;2023-06-10T06:05:51;21.10;99.90
19483;DHT22;9882;51.166;6.992;2023-06-10T06:08:20;21.40;99.90
19483;DHT22;9882;51.166;6.992;2023-06-10T06:10:49;21.20;99.90
19483;DHT22;9882;51.166;6.992;2023-06-10T06:13:17;21.20;99.90
19483;DHT22;9882;51.166;6.992;2023-06-10T06:15:46;21.30;99.90
19483;DHT22;9882;51.166;6.992;2023-06-10T06:18:15;21.30;99.90
19483;DHT22;9882;51.166;6.992;2023-06-10T06:20:43;21.20;99.90
19483;DHT22;9882;51.166;6.992;2023-06-10T06:23:13;21.20;99.90
19483;DHT22;9882;51.166;6.992;2023-06-10T06:25:42;21.30;99.90
19483;DHT22;9882;51.166;6.992;2023-06-10T06:28:11;21.20;99.90
19483;DHT22;9882;51.166;6.992;2023-06-10T06:30:39;21.20;99.90
19483;DHT22;9882;51.166;6.992;2023-06-10T06:33:07;21.30;99.90
19483;DHT22;9882;51.166;6.992;2023-06-10T06:35:36;21.30;99.90
19483;DHT22;9882;51.166;6.992;2023-06-10T06:38:05;21.30;99.90
19483;DHT22;9882;51.166;6.992;2023-06-10T06:40:36;21.40;99.90
19483;DHT22;9882;51.166;6.992;2023-06-10T06:43:04;21.60;99.90
19483;DHT22;9882;51.166;6.992;2023-06-10T06:45:38;21.50;99.90
19483;DHT22;9882;51.166;6.992;2023-06-10T06:48:07;21.40;99.90
19483;DHT22;9882;51.166;6.992;2023-06-10T06:50:35;21.50;99.90
19483;DHT22;9882;51.166;6.992;2023-06-10T06:53:05;21.70;99.90
19483;DHT22;9882;51.166;6.992;2023-06-10T06:55:34;21.80;99.90
19483;DHT22;9882;51.166;6.992;2023-06-10T06:58:03;21.80;99.90
19483;DHT22;9882;51.166;6.992;2023-06-10T07:00:32;21.90;99.90
19483;DHT22;9882;51.166;6.992;2023-06-10T07:03:01;21.80;99.90
19483;DHT22;9882;51.166;6.992;2023-06-10T07:05:31;21.90;99.90
19483;DHT22;9882;51.166;6.992;2023-06-10T07:08:09;21.90;99.90
19483;DHT22;9882;51.166;6.992;2023-06-10T07:10:39;22.00;99.90
19483;DHT22;9882;51.166;6.992;2023-06-10T07:13:09;22.10;99.90
19483;DHT22;9882;51.166;6.992;2023-06-10T07:15:38;22.10;99.90
19483;DHT22;9882;51.166;6.992;2023-06-10T07:18:09;22.30;99.90
19483;DHT22;9882;51.166;6.992;2023-06-10T07:20:38;22.30;99.90
19483;DHT22;9882;51.166;6.992;2023-06-10T07:23:07;22.40;99.90
19483;DHT22;9882;51.166;6.992;2023-06-10T07:25:35;22.40;99.90
19483;DHT22;9882;51.166;6.992;2023-06-10T07:28:04;22.60;99.90
19483;DHT22;9882;51.166;6.992;2023-06-10T07:30:34;22.60;99.90
19483;DHT22;9882;51.166;6.992;2023-06-10T07:33:02;22.60;99.90
19483;DHT22;9882;51.166;6.992;2023-06-10T07:35:33;22.70;99.90
19483;DHT22;9882;51.166;6.992;2023-06-10T07:38:01;22.90;99.90
19483;DHT22;9882;51.166;6.992;2023-06-10T07:40:30;23.00;99.90
19483;DHT22;9882;51.166;6.992;2023-06-10T07:43:00;23.10;99.90
19483;DHT22;9882;51.166;6.992;2023-06-10T07:45:29;22.90;99.90
19483;DHT22;9882;51.166;6.992;2023-06-10T07:47:59;23.30;99.90
19483;DHT22;9882;51.166;6.992;2023-06-10T07:50:27;23.30;99.90
19483;DHT22;9882;51.166;6.992;2023-06-10T07:52:56;23.40;99.90
19483;DHT22;9882;51.166;6.992;2023-06-10T07:55:24;23.60;99.90
19483;DHT22;9882;51.166;6.992;2023-06-10T07:57:54;23.60;99.90
19483;DHT22;9882;51.166;6.992;2023-06-10T08:00:23;23.70;99.90
19483;DHT22;9882;51.166;6.992;2023-06-10T08:02:51;23.70;99.90
19483;DHT22;9882;51.166;6.992;2023-06-10T08:05:21;24.00;99.90
19483;DHT22;9882;51.166;6.992;2023-06-10T08:07:50;24.10;99.90
19483;DHT22;9882;51.166;6.992;2023-06-10T08:10:19;24.00;99.90
19483;DHT22;9882;51.166;6.992;2023-06-10T08:12:47;24.10;99.90
19483;DHT22;9882;51.166;6.992;2023-06-10T08:15:16;24.00;99.90
19483;DHT22;9882;51.166;6.992;2023-06-10T08:17:45;23.90;99.90
19483;DHT22;9882;51.166;6.992;2023-06-10T08:20:14;24.10;99.90
19483;DHT22;9882;51.166;6.992;2023-06-10T08:22:44;23.90;99.90
19483;DHT22;9882;51.166;6.992;2023-06-10T08:25:12;24.20;99.90
19483;DHT22;9882;51.166;6.992;2023-06-10T08:27:41;24.30;99.90
19483;DHT22;9882;51.166;6.992;2023-06-10T08:30:10;24.30;99.90
19483;DHT22;9882;51.166;6.992;2023-06-10T08:32:40;24.40;99.90
19483;DHT22;9882;51.166;6.992;2023-06-10T08:35:08;24.40;99.90
19483;DHT22;9882;51.166;6.992;2023-06-10T08:37:37;24.30;99.90
19483;DHT22;9882;51.166;6.992;2023-06-10T08:40:08;24.60;99.90
19483;DHT22;9882;51.166;6.992;2023-06-10T08:42:43;24.80;99.90
19483;DHT22;9882;51.166;6.992;2023-06-10T08:45:17;24.70;99.90
19483;DHT22;9882;51.166;6.992;2023-06-10T08:47:46;24.70;99.90
19483;DHT22;9882;51.166;6.992;2023-06-10T08:50:18;24.80;99.90
19483;DHT22;9882;51.166;6.992;2023-06-10T08:52:50;25.00;99.90
19483;DHT22;9882;51.166;6.992;2023-06-10T08:55:26;24.80;99.90
19483;DHT22;9882;51.166;6.992;2023-06-10T08:57:58;24.90;99.90
19483;DHT22;9882;51.166;6.992;2023-06-10T09:00:28;24.90;99.90
19483;DHT22;9882;51.166;6.992;2023-06-10T09:02:58;25.00;99.90
19483;DHT22;9882;51.166;6.992;2023-06-10T09:05:28;25.00;99.90
19483;DHT22;9882;51.166;6.992;2023-06-10T09:07:57;25.10;99.90
19483;DHT22;9882;51.166;6.992;2023-06-10T09:10:28;25.30;99.90
19483;DHT22;9882;51.166;6.992;2023-06-10T09:12:57;25.60;99.90
19483;DHT22;9882;51.166;6.992;2023-06-10T09:15:26;25.70;99.90
19483;DHT22;9882;51.166;6.992;2023-06-10T09:17:55;25.90;99.90
19483;DHT22;9882;51.166;6.992;2023-06-10T09:20:24;25.70;99.90
19483;DHT22;9882;51.166;6.992;2023-06-10T09:22:53;25.70;99.90
19483;DHT22;9882;51.166;6.992;2023-06-10T09:25:36;25.70;99.90
19483;DHT22;9882;51.166;6.992;2023-06-10T09:28:08;25.80;99.90
19483;DHT22;9882;51.166;6.992;2023-06-10T09:30:40;25.70;99.90
19483;DHT22;9882;51.166;6.992;2023-06-10T09:33:10;25.70;99.90
19483;DHT22;9882;51.166;6.992;2023-06-10T09:35:45;25.80;99.90
19483;DHT22;9882;51.166;6.992;2023-06-10T09:38:15;25.70;99.90
19483;DHT22;9882;51.166;6.992;2023-06-10T09:40:52;25.70;99.90
19483;DHT22;9882;51.166;6.992;2023-06-10T09:43:21;25.70;99.90
19483;DHT22;9882;51.166;6.992;2023-06-10T09:45:50;25.70;99.90
19483;DHT22;9882;51.166;6.992;2023-06-10T09:48:21;25.90;99.90
19483;DHT22;9882;51.166;6.992;2023-06-10T09:50:50;25.90;99.90
19483;DHT22;9882;51.166;6.992;2023-06-10T09:53:20;25.90;99.90
19483;DHT22;9882;51.166;6.992;2023-06-10T09:55:49;26.00;99.90
19483;DHT22;9882;51.166;6.992;2023-06-10T09:58:34;26.00;99.90
19483;DHT22;9882;51.166;6.992;2023-06-10T10:01:05;26.30;99.90
19483;DHT22;9882;51.166;6.992;2023-06-10T10:03:33;26.70;99.90
19483;DHT22;9882;51.166;6.992;2023-06-10T10:06:02;26.60;99.90
19483;DHT22;9882;51.166;6.992;2023-06-10T10:08:30;26.70;99.90
19483;DHT22;9882;51.166;6.992;2023-06-10T10:10:59;26.90;99.90
19483;DHT22;9882;51.166;6.992;2023-06-10T10:13:33;27.00;99.90
19483;DHT22;9882;51.166;6.992;2023-06-10T10:16:06;27.00;99.90
19483;DHT22;9882;51.166;6.992;2023-06-10T10:18:35;27.00;99.90
19483;DHT22;9882;51.166;6.992;2023-06-10T10:21:11;26.90;99.90
19483;DHT22;9882;51.166;6.992;2023-06-10T10:23:45;26.80;99.90
19483;DHT22;9882;51.166;6.992;2023-06-10T10:26:17;26.70;99.90
19483;DHT22;9882;51.166;6.992;2023-06-10T10:28:53;26.60;99.90
19483;DHT22;9882;51.166;6.992;2023-06-10T10:31:27;26.60;99.90
19483;DHT22;9882;51.166;6.992;2023-06-10T10:33:59;26.60;99.90
19483;DHT22;9882;51.166;6.992;2023-06-10T10:36:28;26.60;99.90
19483;DHT22;9882;51.166;6.992;2023-06-10T10:38:57;26.60;99.90
19483;DHT22;9882;51.166;6.992;2023-06-10T10:41:30;26.60;99.90
19483;DHT22;9882;51.166;6.992;2023-06-10T10:44:01;26.60;99.90
19483;DHT22;9882;51.166;6.992;2023-06-10T10:46:42;26.80;99.90
19483;DHT22;9882;51.166;6.992;2023-06-10T10:49:11;26.80;99.90
19483;DHT22;9882;51.166;6.992;2023-06-10T10:51:55;26.90;99.90
19483;DHT22;9882;51.166;6.992;2023-06-10T10:54:34;26.90;99.90
19483;DHT22;9882;51.166;6.992;2023-06-10T10:57:16;27.00;99.90
19483;DHT22;9882;51.166;6.992;2023-06-10T10:59:54;27.00;99.90
19483;DHT22;9882;51.166;6.992;2023-06-10T11:02:34;27.10;99.90
19483;DHT22;9882;51.166;6.992;2023-06-10T11:05:06;27.30;99.90
19483;DHT22;9882;51.166;6.992;2023-06-10T11:07:36;27.40;99.90
19483;DHT22;9882;51.166;6.992;2023-06-10T11:10:09;27.60;99.90
19483;DHT22;9882;51.166;6.992;2023-06-10T11:12:42;27.70;99.90
19483;DHT22;9882;51.166;6.992;2023-06-10T11:15:20;27.70;99.90
19483;DHT22;9882;51.166;6.992;2023-06-10T11:18:12;27.60;99.90
19483;DHT22;9882;51.166;6.992;2023-06-10T11:20:56;27.60;99.90
19483;DHT22;9882;51.166;6.992;2023-06-10T11:23:39;27.70;99.90
19483;DHT22;9882;51.166;6.992;2023-06-10T11:26:29;27.70;99.90
19483;DHT22;9882;51.166;6.992;2023-06-10T11:29:08;27.90;99.90
19483;DHT22;9882;51.166;6.992;2023-06-10T11:31:44;28.10;99.90
19483;DHT22;9882;51.166;6.992;2023-06-10T11:34:15;28.10;99.90
19483;DHT22;9882;51.166;6.992;2023-06-10T11:36:43;28.00;99.90
19483;DHT22;9882;51.166;6.992;2023-06-10T11:39:13;27.90;99.90
19483;DHT22;9882;51.166;6.992;2023-06-10T11:41:42;27.80;99.90
19483;DHT22;9882;51.166;6.992;2023-06-10T11:44:11;27.80;99.90
19483;DHT22;9882;51.166;6.992;2023-06-10T11:46:43;27.70;99.90
19483;DHT22;9882;51.166;6.992;2023-06-10T11:49:12;27.70;99.90
19483;DHT22;9882;51.166;6.992;2023-06-10T11:51:41;27.70;99.90
19483;DHT22;9882;51.166;6.992;2023-06-10T11:54:16;27.60;99.90
19483;DHT22;9882;51.166;6.992;2023-06-10T11:56:46;27.60;99.90
19483;DHT22;9882;51.166;6.992;2023-06-10T11:59:15;27.70;99.90
19483;DHT22;9882;51.166;6.992;2023-06-10T12:01:45;27.60;99.90
19483;DHT22;9882;51.166;6.992;2023-06-10T12:04:15;27.60;99.90
19483;DHT22;9882;51.166;6.992;2023-06-10T12:06:46;27.40;99.90
19483;DHT22;9882;51.166;6.992;2023-06-10T12:09:19;27.30;99.90
19483;DHT22;9882;51.166;6.992;2023-06-10T12:11:52;27.30;99.90
19483;DHT22;9882;51.166;6.992;2023-06-10T12:14:51;27.40;99.90
19483;DHT22;9882;51.166;6.992;2023-06-10T12:17:34;27.50;99.90
19483;DHT22;9882;51.166;6.992;2023-06-10T12:20:05;27.60;99.90
19483;DHT22;9882;51.166;6.992;2023-06-10T12:22:38;27.70;99.90
19483;DHT22;9882;51.166;6.992;2023-06-10T12:25:08;27.80;99.90
19483;DHT22;9882;51.166;6.992;2023-06-10T12:27:38;27.80;99.90
19483;DHT22;9882;51.166;6.992;2023-06-10T12:30:08;27.80;99.90
19483;DHT22;9882;51.166;6.992;2023-06-10T12:32:40;28.20;99.90
19483;DHT22;9882;51.166;6.992;2023-06-10T12:35:10;28.50;99.90
19483;DHT22;9882;51.166;6.992;2023-06-10T12:37:39;28.50;99.90
19483;DHT22;9882;51.166;6.992;2023-06-10T12:40:10;28.70;99.90
19483;DHT22;9882;51.166;6.992;2023-06-10T12:42:38;29.10;99.40
19483;DHT22;9882;51.166;6.992;2023-06-10T12:45:08;29.20;99.30
19483;DHT22;9882;51.166;6.992;2023-06-10T12:47:39;29.30;98.50
19483;DHT22;9882;51.166;6.992;2023-06-10T12:50:09;29.50;97.00
19483;DHT22;9882;51.166;6.992;2023-06-10T12:52:39;29.40;97.80
19483;DHT22;9882;51.166;6.992;2023-06-10T12:55:08;29.60;96.40
19483;DHT22;9882;51.166;6.992;2023-06-10T12:57:37;29.80;96.50
19483;DHT22;9882;51.166;6.992;2023-06-10T13:00:07;29.70;94.00
19483;DHT22;9882;51.166;6.992;2023-06-10T13:02:38;29.50;94.50
19483;DHT22;9882;51.166;6.992;2023-06-10T13:05:07;29.60;95.80
19483;DHT22;9882;51.166;6.992;2023-06-10T13:07:37;29.60;96.50
19483;DHT22;9882;51.166;6.992;2023-06-10T13:10:07;29.60;97.10
19483;DHT22;9882;51.166;6.992;2023-06-10T13:12:35;29.70;95.90
19483;DHT22;9882;51.166;6.992;2023-06-10T13:15:13;29.90;96.40
19483;DHT22;9882;51.166;6.992;2023-06-10T13:17:44;29.80;95.30
19483;DHT22;9882;51.166;6.992;2023-06-10T13:20:16;29.80;96.80
19483;DHT22;9882;51.166;6.992;2023-06-10T13:22:45;29.70;94.70
19483;DHT22;9882;51.166;6.992;2023-06-10T13:25:14;29.70;95.30
19483;DHT22;9882;51.166;6.992;2023-06-10T13:27:43;29.60;96.80
19483;DHT22;9882;51.166;6.992;2023-06-10T13:30:12;29.50;94.50
19483;DHT22;9882;51.166;6.992;2023-06-10T13:32:41;29.40;97.00
19483;DHT22;9882;51.166;6.992;2023-06-10T13:35:11;29.40;93.50
19483;DHT22;9882;51.166;6.992;2023-06-10T13:37:39;29.40;94.40
19483;DHT22;9882;51.166;6.992;2023-06-10T13:40:09;29.40;96.60
19483;DHT22;9882;51.166;6.992;2023-06-10T13:42:38;29.40;96.00
19483;DHT22;9882;51.166;6.992;2023-06-10T13:45:07;29.40;93.90
19483;DHT22;9882;51.166;6.992;2023-06-10T13:47:36;29.30;96.90
19483;DHT22;9882;51.166;6.992;2023-06-10T13:50:06;29.40;95.10
19483;DHT22;9882;51.166;6.992;2023-06-10T13:52:37;29.40;96.00
19483;DHT22;9882;51.166;6.992;2023-06-10T13:55:07;29.40;96.40
19483;DHT22;9882;51.166;6.992;2023-06-10T13:57:35;29.70;97.00
19483;DHT22;9882;51.166;6.992;2023-06-10T14:00:05;30.40;94.70
19483;DHT22;9882;51.166;6.992;2023-06-10T14:02:34;31.10;93.70
19483;DHT22;9882;51.166;6.992;2023-06-10T14:05:03;31.40;92.60
19483;DHT22;9882;51.166;6.992;2023-06-10T14:07:32;31.10;91.70
19483;DHT22;9882;51.166;6.992;2023-06-10T14:10:03;30.80;91.30
19483;DHT22;9882;51.166;6.992;2023-06-10T14:12:31;30.70;89.50
19483;DHT22;9882;51.166;6.992;2023-06-10T14:15:00;30.50;92.80
19483;DHT22;9882;51.166;6.992;2023-06-10T14:17:28;30.50;93.90
19483;DHT22;9882;51.166;6.992;2023-06-10T14:19:57;30.60;93.90
19483;DHT22;9882;51.166;6.992;2023-06-10T14:22:25;30.70;93.20
19483;DHT22;9882;51.166;6.992;2023-06-10T14:24:54;30.70;93.40
19483;DHT22;9882;51.166;6.992;2023-06-10T14:27:24;30.70;93.60
19483;DHT22;9882;51.166;6.992;2023-06-10T14:29:52;30.60;93.40
19483;DHT22;9882;51.166;6.992;2023-06-10T14:32:21;30.50;94.40
19483;DHT22;9882;51.166;6.992;2023-06-10T14:34:49;30.50;94.10
19483;DHT22;9882;51.166;6.992;2023-06-10T14:37:18;30.40;94.40
19483;DHT22;9882;51.166;6.992;2023-06-10T14:39:47;30.40;94.50
19483;DHT22;9882;51.166;6.992;2023-06-10T14:42:15;30.40;95.10
19483;DHT22;9882;51.166;6.992;2023-06-10T14:44:45;30.70;94.80
19483;DHT22;9882;51.166;6.992;2023-06-10T14:47:14;30.70;95.90
19483;DHT22;9882;51.166;6.992;2023-06-10T14:49:43;30.80;95.20
19483;DHT22;9882;51.166;6.992;2023-06-10T14:52:12;31.70;94.00
19483;DHT22;9882;51.166;6.992;2023-06-10T14:54:40;32.20;92.90
19483;DHT22;9882;51.166;6.992;2023-06-10T14:57:09;32.50;91.80
19483;DHT22;9882;51.166;6.992;2023-06-10T14:59:38;32.80;91.70
19483;DHT22;9882;51.166;6.992;2023-06-10T15:02:07;33.30;89.20
19483;DHT22;9882;51.166;6.992;2023-06-10T15:04:36;33.60;89.00
19483;DHT22;9882;51.166;6.992;2023-06-10T15:07:05;33.70;87.10
19483;DHT22;9882;51.166;6.992;2023-06-10T15:09:33;33.90;84.60
19483;DHT22;9882;51.166;6.992;2023-06-10T15:12:02;34.20;86.20
19483;DHT22;9882;51.166;6.992;2023-06-10T15:14:32;34.20;81.50
19483;DHT22;9882;51.166;6.992;2023-06-10T15:17:01;34.20;82.40
19483;DHT22;9882;51.166;6.992;2023-06-10T15:19:31;34.40;83.00
19483;DHT22;9882;51.166;6.992;2023-06-10T15:22:00;34.00;79.20
19483;DHT22;9882;51.166;6.992;2023-06-10T15:24:28;34.00;79.90
19483;DHT22;9882;51.166;6.992;2023-06-10T15:26:57;33.70;82.00
19483;DHT22;9882;51.166;6.992;2023-06-10T15:29:27;33.20;81.40
19483;DHT22;9882;51.166;6.992;2023-06-10T15:31:55;33.10;84.80
19483;DHT22;9882;51.166;6.992;2023-06-10T15:34:24;32.70;80.70
19483;DHT22;9882;51.166;6.992;2023-06-10T15:36:54;32.50;77.60
19483;DHT22;9882;51.166;6.992;2023-06-10T15:39:22;32.20;74.30
19483;DHT22;9882;51.166;6.992;2023-06-10T15:41:54;32.10;78.20
19483;DHT22;9882;51.166;6.992;2023-06-10T15:44:22;32.00;80.70
19483;DHT22;9882;51.166;6.992;2023-06-10T15:46:51;31.80;70.00
19483;DHT22;9882;51.166;6.992;2023-06-10T15:49:20;31.60;72.70
19483;DHT22;9882;51.166;6.992;2023-06-10T15:51:48;32.00;83.50
19483;DHT22;9882;51.166;6.992;2023-06-10T15:54:18;32.40;73.40
19483;DHT22;9882;51.166;6.992;2023-06-10T15:56:47;33.00;79.60
19483;DHT22;9882;51.166;6.992;2023-06-10T15:59:15;33.50;75.50
19483;DHT22;9882;51.166;6.992;2023-06-10T16:01:44;33.70;76.00
19483;DHT22;9882;51.166;6.992;2023-06-10T16:04:15;33.90;69.90